Enchant, Canada
Current Conditions -  °F | °C
As of 2:46 AM on Wednesday 26 Nov 2014 (Local Time) from CYQL Reporting Station
Light Snow Light Snow  
Wind Chill: 21°   Ceiling: 3000
Heat Index: 27°   Visibility: 2mi
Dew Point: 27°   Wind: 5mph
Humidity: 100%   Direction: 80°E
Pressure: 30.16"   Gusts: NA
Location:  50.17°N, 112.42°W
Report Text: CYQL 260946Z AUTO 08004KT 290V100 2SM -SN OVC030 M03/M03 A3016 RMK SLP251
Loading
Personal Weather Stations






























Interactive Weather Map New forecast layout! Learn more

10-Day Weather Forecast

Advertisements
Track Severe Weather on mobile